createdAt,value
2022-10-05T00:00:20.693Z,2.63
2022-10-05T00:02:49.746Z,2.00
2022-10-05T00:05:31.833Z,2.37
2022-10-05T00:08:11.361Z,2.30
2022-10-05T00:10:43.518Z,2.03
2022-10-05T00:13:20.983Z,2.20
2022-10-05T00:15:49.964Z,2.37
2022-10-05T00:18:21.014Z,2.03
2022-10-05T00:20:49.559Z,1.73
2022-10-05T00:23:23.149Z,1.60
2022-10-05T00:25:51.221Z,1.80
2022-10-05T00:28:36.418Z,1.80
2022-10-05T00:31:22.187Z,1.67
2022-10-05T00:33:51.312Z,2.07
2022-10-05T00:36:19.313Z,1.80
2022-10-05T00:38:46.874Z,1.60
2022-10-05T00:41:32.548Z,1.60
2022-10-05T00:43:59.902Z,1.77
2022-10-05T00:46:46.683Z,1.50
2022-10-05T00:49:23.279Z,1.57
2022-10-05T00:52:25.930Z,1.30
2022-10-05T00:55:05.407Z,1.63
2022-10-05T00:57:59.962Z,1.67
2022-10-05T01:00:28.183Z,1.53
2022-10-05T01:03:02.381Z,1.63
2022-10-05T01:05:51.011Z,1.40
2022-10-05T01:08:41.843Z,1.53
2022-10-05T01:11:29.524Z,1.30
2022-10-05T01:14:03.586Z,1.33
2022-10-05T01:16:58.247Z,1.43
2022-10-05T01:19:53.150Z,1.30
2022-10-05T01:22:45.140Z,1.97
2022-10-05T01:25:27.090Z,1.57
2022-10-05T01:27:59.490Z,1.40
2022-10-05T01:30:30.047Z,1.90
2022-10-05T01:33:07.404Z,1.53
2022-10-05T01:35:52.704Z,1.80
2022-10-05T01:38:44.090Z,1.67
2022-10-05T01:41:25.936Z,1.70
2022-10-05T01:44:06.199Z,1.73
2022-10-05T01:47:07.130Z,1.80
2022-10-05T01:49:56.452Z,1.90
2022-10-05T01:52:35.639Z,2.30
2022-10-05T01:55:40.886Z,1.90
2022-10-05T01:58:27.837Z,2.10
2022-10-05T02:01:02.695Z,2.00
2022-10-05T02:03:40.841Z,2.07
2022-10-05T02:06:30.845Z,2.27
2022-10-05T02:09:01.569Z,2.00
2022-10-05T02:11:29.989Z,1.80
2022-10-05T02:14:02.574Z,1.80
2022-10-05T02:16:37.659Z,2.40
2022-10-05T02:19:21.698Z,2.00
2022-10-05T02:21:54.854Z,2.00
2022-10-05T02:24:31.406Z,2.10
2022-10-05T02:26:59.131Z,2.07
2022-10-05T02:29:31.030Z,2.10
2022-10-05T02:32:14.565Z,1.90
2022-10-05T02:34:43.600Z,1.57
2022-10-05T02:38:08.074Z,1.97
2022-10-05T02:41:19.869Z,1.37
2022-10-05T02:44:12.007Z,1.73
2022-10-05T02:46:59.537Z,1.90
2022-10-05T02:49:37.722Z,1.73
2022-10-05T02:52:25.180Z,1.47
2022-10-05T02:55:13.114Z,1.40
2022-10-05T02:58:07.254Z,1.60
2022-10-05T03:00:48.105Z,1.60
2022-10-05T03:03:31.274Z,1.70
2022-10-05T03:06:35.284Z,1.53
2022-10-05T03:09:06.202Z,1.83
2022-10-05T03:11:41.210Z,1.80
2022-10-05T03:14:18.594Z,1.40
2022-10-05T03:17:07.110Z,1.20
2022-10-05T03:19:54.263Z,1.40
2022-10-05T03:22:42.455Z,1.37
2022-10-05T03:25:12.692Z,1.23
2022-10-05T03:28:19.310Z,1.60
2022-10-05T03:31:03.007Z,1.40
2022-10-05T03:34:02.516Z,1.27
2022-10-05T03:36:37.855Z,1.20
2022-10-05T03:39:41.422Z,0.80
2022-10-05T03:42:12.975Z,1.23
2022-10-05T03:44:58.357Z,1.17
2022-10-05T03:47:39.702Z,1.40
2022-10-05T03:50:27.278Z,1.07
2022-10-05T03:53:03.933Z,0.80
2022-10-05T03:55:40.829Z,1.10
2022-10-05T03:58:35.623Z,0.60
2022-10-05T04:01:10.485Z,0.70
2022-10-05T04:03:46.910Z,0.90
2022-10-05T04:06:23.148Z,0.97
2022-10-05T04:09:05.610Z,0.90
2022-10-05T04:11:43.074Z,0.83
2022-10-05T04:14:15.958Z,0.80
2022-10-05T04:16:52.698Z,0.80
2022-10-05T04:19:29.001Z,0.73
2022-10-05T04:22:00.968Z,0.80
2022-10-05T04:24:31.467Z,0.90
2022-10-05T04:27:04.713Z,0.87
2022-10-05T04:29:59.483Z,0.70
2022-10-05T04:32:35.601Z,0.90
2022-10-05T04:35:15.558Z,0.80
2022-10-05T04:37:55.158Z,1.30
2022-10-05T04:40:25.565Z,0.87
2022-10-05T04:43:17.460Z,1.23
2022-10-05T04:46:14.603Z,0.83
2022-10-05T04:48:55.269Z,1.63
2022-10-05T04:51:25.403Z,1.20
2022-10-05T04:54:25.140Z,1.43
2022-10-05T04:57:07.505Z,1.30
2022-10-05T04:59:43.824Z,1.50
2022-10-05T05:02:36.973Z,1.27
2022-10-05T05:05:15.683Z,1.17
2022-10-05T05:08:09.334Z,1.10
2022-10-05T05:10:42.617Z,0.97
2022-10-05T05:13:31.374Z,1.10
2022-10-05T05:16:07.708Z,1.00
2022-10-05T05:19:06.058Z,1.13
2022-10-05T05:22:02.268Z,1.23
2022-10-05T05:24:40.876Z,1.50
2022-10-05T05:27:42.440Z,1.03
2022-10-05T05:30:43.775Z,1.70
2022-10-05T05:33:23.631Z,1.47
2022-10-05T05:36:25.013Z,2.10
2022-10-05T05:39:08.780Z,1.80
2022-10-05T05:41:50.277Z,1.83
2022-10-05T05:44:22.689Z,1.67
2022-10-05T05:47:05.041Z,1.67
2022-10-05T05:50:07.444Z,1.70
2022-10-05T05:52:47.069Z,1.93
2022-10-05T05:55:29.754Z,1.60
2022-10-05T05:58:18.536Z,2.10
2022-10-05T06:00:57.623Z,2.40
2022-10-05T06:03:34.128Z,3.13
2022-10-05T06:06:20.173Z,2.33
2022-10-05T06:08:53.661Z,2.00
2022-10-05T06:11:58.731Z,2.60
2022-10-05T06:14:52.424Z,2.40
2022-10-05T06:17:29.133Z,3.10
2022-10-05T06:20:02.588Z,2.30
2022-10-05T06:22:39.303Z,2.63
2022-10-05T06:25:12.983Z,1.90
2022-10-05T06:28:15.105Z,1.90
2022-10-05T06:31:07.715Z,2.17
2022-10-05T06:33:44.061Z,1.80
2022-10-05T06:36:34.795Z,1.53
2022-10-05T06:39:03.031Z,2.03
2022-10-05T06:41:53.071Z,1.70
2022-10-05T06:44:40.175Z,1.80
2022-10-05T06:48:00.455Z,1.73
2022-10-05T06:51:11.786Z,1.93
2022-10-05T06:54:14.063Z,1.67
2022-10-05T06:56:46.766Z,1.60
2022-10-05T06:59:25.744Z,1.60
2022-10-05T07:02:08.807Z,1.47
2022-10-05T07:04:41.779Z,1.33
2022-10-05T07:07:21.762Z,1.30
2022-10-05T07:10:08.505Z,1.33
2022-10-05T07:13:14.179Z,1.63
2022-10-05T07:16:01.798Z,1.00
2022-10-05T07:18:32.567Z,1.40
2022-10-05T07:21:44.373Z,1.40
2022-10-05T07:24:29.383Z,1.10
2022-10-05T07:27:17.515Z,1.43
2022-10-05T07:30:04.933Z,1.00
2022-10-05T07:32:43.773Z,1.20
2022-10-05T07:36:00.121Z,1.10
2022-10-05T07:38:59.788Z,1.10
2022-10-05T07:41:36.240Z,1.10
2022-10-05T07:44:27.407Z,1.30
2022-10-05T07:47:00.966Z,1.10
2022-10-05T07:49:53.297Z,1.10
2022-10-05T07:52:35.150Z,0.80
2022-10-05T07:55:18.444Z,1.10
2022-10-05T07:58:05.280Z,0.97
2022-10-05T08:00:45.461Z,0.80
2022-10-05T08:03:31.597Z,1.13
2022-10-05T08:06:01.611Z,0.90
2022-10-05T08:08:47.319Z,0.97
2022-10-05T08:11:18.986Z,0.90
2022-10-05T08:14:33.981Z,0.80
2022-10-05T08:17:11.449Z,0.80
2022-10-05T08:19:53.481Z,0.60
2022-10-05T08:22:29.162Z,0.73
2022-10-05T08:25:04.906Z,0.50
2022-10-05T08:27:35.374Z,0.40
2022-10-05T08:30:06.625Z,0.80
2022-10-05T08:32:36.687Z,0.50
2022-10-05T08:35:28.999Z,1.00
2022-10-05T08:37:57.122Z,0.70
2022-10-05T08:40:43.703Z,1.13
2022-10-05T08:43:48.563Z,0.70
2022-10-05T08:46:34.911Z,0.67
2022-10-05T08:49:20.874Z,1.10
2022-10-05T08:52:03.505Z,1.00
2022-10-05T08:54:56.008Z,0.90
2022-10-05T08:57:49.167Z,0.70
2022-10-05T09:00:24.175Z,0.80
2022-10-05T09:03:09.826Z,0.90
2022-10-05T09:05:49.895Z,0.90
2022-10-05T09:08:31.132Z,0.90
2022-10-05T09:11:10.725Z,0.90
2022-10-05T09:14:11.743Z,0.70
2022-10-05T09:16:53.048Z,0.70
2022-10-05T09:19:51.328Z,1.80
2022-10-05T09:22:49.457Z,1.50
2022-10-05T09:25:29.647Z,0.77
2022-10-05T09:28:35.662Z,1.00
2022-10-05T09:31:43.578Z,0.93
2022-10-05T09:34:45.244Z,1.47
2022-10-05T09:37:51.154Z,1.20
2022-10-05T09:40:30.471Z,1.40
2022-10-05T09:43:36.849Z,1.30
2022-10-05T09:46:29.936Z,1.10
2022-10-05T09:49:26.703Z,1.00
2022-10-05T09:52:09.329Z,1.00
2022-10-05T09:54:51.658Z,1.50
2022-10-05T09:57:34.224Z,1.27
2022-10-05T10:00:10.466Z,1.27
2022-10-05T10:02:56.370Z,0.90
2022-10-05T10:05:39.305Z,1.00
2022-10-05T10:08:34.184Z,1.20
2022-10-05T10:11:03.960Z,1.10
2022-10-05T10:13:53.585Z,1.27
2022-10-05T10:16:58.605Z,0.90
2022-10-05T10:19:59.692Z,1.00
2022-10-05T10:23:04.198Z,0.93
2022-10-05T10:25:32.009Z,1.40
2022-10-05T10:28:25.716Z,1.17
2022-10-05T10:31:25.352Z,1.40
2022-10-05T10:34:14.650Z,1.20
2022-10-05T10:37:12.491Z,1.23
2022-10-05T10:40:27.044Z,1.10
2022-10-05T10:43:32.083Z,1.20
2022-10-05T10:46:33.927Z,1.30
2022-10-05T10:49:01.287Z,1.37
2022-10-05T10:51:34.982Z,1.23
2022-10-05T10:54:38.092Z,1.33
2022-10-05T10:57:10.275Z,2.03
2022-10-05T11:00:15.798Z,1.30
2022-10-05T11:03:13.110Z,1.40
2022-10-05T11:06:05.415Z,1.17
2022-10-05T11:09:08.533Z,1.10
2022-10-05T11:11:36.342Z,1.67
2022-10-05T11:14:32.035Z,1.13
2022-10-05T11:17:31.782Z,1.60
2022-10-05T11:20:40.017Z,1.43
2022-10-05T11:23:10.244Z,1.30
2022-10-05T11:25:58.178Z,1.70
2022-10-05T11:28:36.185Z,2.43
2022-10-05T11:31:16.282Z,1.80
2022-10-05T11:34:20.975Z,1.60
2022-10-05T11:37:13.477Z,1.47
2022-10-05T11:40:11.708Z,1.10
2022-10-05T11:43:08.440Z,1.30
2022-10-05T11:45:48.003Z,1.33
2022-10-05T11:48:20.606Z,1.10
2022-10-05T11:51:21.357Z,1.20
2022-10-05T11:54:09.807Z,0.87
2022-10-05T11:57:07.663Z,1.20
2022-10-05T11:59:44.345Z,1.00
2022-10-05T12:02:20.720Z,1.40
2022-10-05T12:05:18.581Z,1.70
2022-10-05T12:08:13.982Z,1.30
2022-10-05T12:10:44.693Z,1.30
2022-10-05T12:13:39.527Z,1.10
2022-10-05T12:16:26.525Z,1.13
2022-10-05T12:19:02.138Z,1.20
2022-10-05T12:21:34.083Z,1.10
2022-10-05T12:24:14.207Z,1.30
2022-10-05T12:26:58.675Z,1.00
2022-10-05T12:29:56.239Z,1.83
2022-10-05T12:32:38.937Z,1.57
2022-10-05T12:35:47.490Z,1.60
2022-10-05T12:38:37.150Z,1.13
2022-10-05T12:41:22.408Z,1.43
2022-10-05T12:44:05.126Z,1.67
2022-10-05T12:46:53.666Z,1.00
2022-10-05T12:49:28.657Z,1.27
2022-10-05T12:52:01.767Z,1.50
2022-10-05T12:54:38.184Z,1.20
2022-10-05T12:57:31.542Z,1.00
2022-10-05T13:00:10.228Z,1.60
2022-10-05T13:02:50.931Z,1.17
2022-10-05T13:05:27.310Z,1.47
2022-10-05T13:07:57.738Z,1.80
2022-10-05T13:10:36.684Z,1.80
2022-10-05T13:13:23.668Z,1.70
2022-10-05T13:16:03.330Z,1.53
2022-10-05T13:18:45.385Z,1.97
2022-10-05T13:21:19.652Z,2.00
2022-10-05T13:23:47.092Z,1.80
2022-10-05T13:26:19.366Z,1.60
2022-10-05T13:29:05.714Z,1.70
2022-10-05T13:31:41.015Z,1.77
2022-10-05T13:34:14.214Z,1.70
2022-10-05T13:36:41.717Z,1.60
2022-10-05T13:39:32.902Z,1.70
2022-10-05T13:42:15.525Z,2.27
2022-10-05T13:44:53.953Z,1.73
2022-10-05T13:48:00.369Z,1.90
2022-10-05T13:50:35.141Z,1.70
2022-10-05T13:53:15.057Z,1.80
2022-10-05T13:55:57.624Z,2.10
2022-10-05T13:58:33.049Z,1.70
2022-10-05T14:01:06.694Z,1.50
2022-10-05T14:03:38.582Z,1.73
2022-10-05T14:06:14.041Z,1.23
2022-10-05T14:09:12.741Z,1.50
2022-10-05T14:11:51.111Z,1.80
2022-10-05T14:14:28.984Z,2.37
2022-10-05T14:16:59.574Z,2.77
2022-10-05T14:19:32.349Z,1.97
2022-10-05T14:22:00.538Z,3.20
2022-10-05T14:24:44.557Z,2.53
2022-10-05T14:27:30.151Z,2.77
2022-10-05T14:30:09.900Z,2.33
2022-10-05T14:32:56.263Z,1.80
2022-10-05T14:35:28.355Z,2.37
2022-10-05T14:38:00.547Z,2.07
2022-10-05T14:40:34.522Z,2.50
2022-10-05T14:43:16.483Z,3.40
2022-10-05T14:46:02.894Z,6.53
2022-10-05T14:48:44.264Z,2.87
2022-10-05T14:51:25.197Z,1.70
2022-10-05T14:54:15.038Z,2.20
2022-10-05T14:57:05.049Z,1.87
2022-10-05T14:59:41.327Z,1.97
2022-10-05T15:02:48.080Z,1.93
2022-10-05T15:05:46.070Z,1.77
2022-10-05T15:08:51.000Z,2.10
2022-10-05T15:11:28.323Z,1.93
2022-10-05T15:13:56.680Z,1.67
2022-10-05T15:16:31.266Z,1.87
2022-10-05T15:19:20.999Z,1.50
2022-10-05T15:22:09.916Z,1.73
2022-10-05T15:24:52.620Z,1.70
2022-10-05T15:27:49.449Z,1.53
2022-10-05T15:30:18.551Z,1.87
2022-10-05T15:33:05.357Z,1.77
2022-10-05T15:35:45.050Z,1.67
2022-10-05T15:38:25.619Z,1.80
2022-10-05T15:41:24.619Z,1.67
2022-10-05T15:44:06.423Z,1.70
2022-10-05T15:46:36.775Z,1.50
2022-10-05T15:49:22.933Z,1.60
2022-10-05T15:52:28.801Z,1.77
2022-10-05T15:55:17.747Z,1.43
2022-10-05T15:58:08.589Z,1.40
2022-10-05T16:00:43.509Z,1.40
2022-10-05T16:03:51.473Z,1.37
2022-10-05T16:07:04.111Z,1.63
2022-10-05T16:09:41.253Z,1.67
2022-10-05T16:12:09.803Z,1.07
2022-10-05T16:14:46.345Z,0.93
2022-10-05T16:17:35.205Z,1.10
2022-10-05T16:20:08.754Z,1.13
2022-10-05T16:22:45.040Z,0.97
2022-10-05T16:25:55.626Z,1.10
2022-10-05T16:28:49.862Z,1.10
2022-10-05T16:31:48.343Z,0.87
2022-10-05T16:34:27.978Z,0.90
2022-10-05T16:37:28.952Z,1.17
2022-10-05T16:40:03.530Z,0.97
2022-10-05T16:43:02.838Z,0.90
2022-10-05T16:45:58.433Z,1.23
2022-10-05T16:48:40.261Z,1.30
2022-10-05T16:51:20.702Z,1.10
2022-10-05T16:53:59.291Z,1.00
2022-10-05T16:56:34.415Z,1.30
2022-10-05T16:59:26.687Z,0.93
2022-10-05T17:02:23.509Z,1.20
2022-10-05T17:05:32.884Z,1.20
2022-10-05T17:08:26.448Z,1.00
2022-10-05T17:11:34.084Z,1.30
2022-10-05T17:14:39.311Z,1.30
2022-10-05T17:17:21.859Z,1.30
2022-10-05T17:20:13.989Z,1.10
2022-10-05T17:22:52.524Z,0.97
2022-10-05T17:25:40.675Z,1.30
2022-10-05T17:28:38.043Z,1.10
2022-10-05T17:31:12.727Z,2.07
2022-10-05T17:33:59.234Z,1.30
2022-10-05T17:36:54.309Z,1.10
2022-10-05T17:39:24.018Z,1.10
2022-10-05T17:41:54.062Z,1.13
2022-10-05T17:44:25.030Z,1.10
2022-10-05T17:46:54.111Z,1.00
2022-10-05T17:50:18.252Z,0.90
2022-10-05T17:53:49.559Z,1.17
2022-10-05T17:56:17.629Z,0.90
2022-10-05T17:58:44.995Z,1.40
2022-10-05T18:01:35.576Z,1.47
2022-10-05T18:04:13.532Z,1.27
2022-10-05T18:07:00.179Z,1.23
2022-10-05T18:09:33.539Z,1.10
2022-10-05T18:12:15.490Z,0.97
2022-10-05T18:14:57.421Z,1.40
2022-10-05T18:17:46.614Z,1.20
2022-10-05T18:20:19.340Z,1.30
2022-10-05T18:22:50.933Z,1.40
2022-10-05T18:25:40.162Z,1.23
2022-10-05T18:28:31.002Z,1.13
2022-10-05T18:31:31.105Z,1.27
2022-10-05T18:34:27.379Z,0.80
2022-10-05T18:36:57.594Z,1.43
2022-10-05T18:39:46.231Z,1.17
2022-10-05T18:42:27.351Z,1.40
2022-10-05T18:45:22.441Z,1.57
2022-10-05T18:48:12.932Z,1.40
2022-10-05T18:50:46.573Z,1.53
2022-10-05T18:53:25.955Z,1.20
2022-10-05T18:55:59.264Z,2.90
2022-10-05T18:58:41.718Z,2.63
2022-10-05T19:01:18.519Z,1.80
2022-10-05T19:03:47.249Z,1.60
2022-10-05T19:06:25.308Z,1.53
2022-10-05T19:09:20.688Z,1.07
2022-10-05T19:12:04.901Z,0.53
2022-10-05T19:14:47.124Z,0.40
2022-10-05T19:17:27.383Z,0.53
2022-10-05T19:20:04.031Z,0.40
2022-10-05T19:22:53.870Z,0.40
2022-10-05T19:25:47.709Z,0.37
2022-10-05T19:28:28.599Z,0.30
2022-10-05T19:31:22.578Z,0.53
2022-10-05T19:34:16.632Z,0.30
2022-10-05T19:37:01.319Z,0.20
2022-10-05T19:39:44.848Z,0.30
2022-10-05T19:42:37.249Z,0.30
2022-10-05T19:45:24.176Z,0.27
2022-10-05T19:48:09.008Z,0.30
2022-10-05T19:50:40.621Z,0.30
2022-10-05T19:53:22.618Z,0.70
2022-10-05T19:55:50.398Z,0.20
2022-10-05T19:58:19.348Z,0.27
2022-10-05T20:01:01.451Z,0.57
2022-10-05T20:03:30.922Z,0.30
2022-10-05T20:06:01.099Z,0.30
2022-10-05T20:08:39.494Z,0.43
2022-10-05T20:11:15.886Z,0.40
2022-10-05T20:13:46.565Z,0.33
2022-10-05T20:19:55.329Z,0.30
2022-10-05T20:22:22.693Z,0.43
2022-10-05T20:24:51.487Z,0.47
2022-10-05T20:27:41.570Z,0.43
2022-10-05T20:30:11.266Z,0.33
2022-10-05T20:32:38.699Z,0.40
2022-10-05T20:35:07.127Z,0.40
2022-10-05T20:37:34.939Z,0.40
2022-10-05T20:40:03.134Z,0.43
2022-10-05T20:42:30.987Z,0.20
2022-10-05T20:44:58.860Z,0.40
2022-10-05T20:47:27.020Z,0.57
2022-10-05T20:49:54.835Z,0.27
2022-10-05T20:52:23.189Z,0.50
2022-10-05T20:54:53.936Z,0.20
2022-10-05T20:57:24.205Z,0.47
2022-10-05T20:59:53.401Z,0.50
2022-10-05T21:02:20.872Z,0.30
2022-10-05T21:04:49.211Z,0.40
2022-10-05T21:07:19.019Z,0.30
2022-10-05T21:09:46.977Z,0.33
2022-10-05T21:12:16.474Z,0.40
2022-10-05T21:14:44.034Z,0.33
2022-10-05T21:17:12.641Z,0.50
2022-10-05T21:19:40.954Z,0.20
2022-10-05T21:22:10.057Z,0.20
2022-10-05T21:24:39.648Z,0.23
2022-10-05T21:27:07.705Z,0.20
2022-10-05T21:29:37.116Z,0.20
2022-10-05T21:32:08.809Z,0.40
2022-10-05T21:34:36.408Z,0.30
2022-10-05T21:37:04.396Z,0.60
2022-10-05T21:39:33.723Z,0.53
2022-10-05T21:42:01.620Z,0.53
2022-10-05T21:44:29.053Z,0.50
2022-10-05T21:46:56.889Z,0.47
2022-10-05T21:49:25.392Z,0.83
2022-10-05T21:51:53.114Z,0.37
2022-10-05T21:54:22.499Z,0.43
2022-10-05T21:56:53.663Z,0.47
2022-10-05T21:59:24.427Z,0.40
2022-10-05T22:01:52.388Z,0.53
2022-10-05T22:04:20.287Z,0.60
2022-10-05T22:06:49.022Z,0.60
2022-10-05T22:09:16.445Z,0.40
2022-10-05T22:11:47.751Z,0.50
2022-10-05T22:14:16.036Z,0.50
2022-10-05T22:16:44.758Z,0.63
2022-10-05T22:19:18.645Z,0.57
2022-10-05T22:21:46.106Z,0.60
2022-10-05T22:24:13.604Z,0.57
2022-10-05T22:26:43.786Z,0.30
2022-10-05T22:29:11.653Z,0.70
2022-10-05T22:31:39.299Z,0.30
2022-10-05T22:34:07.061Z,0.40
2022-10-05T22:36:35.836Z,0.40
2022-10-05T22:39:03.794Z,0.50
2022-10-05T22:41:31.225Z,0.70
2022-10-05T22:43:59.357Z,0.70
2022-10-05T22:46:26.986Z,0.60
2022-10-05T22:48:54.472Z,0.70
2022-10-05T22:51:21.974Z,0.90
2022-10-05T22:53:49.397Z,0.50
2022-10-05T22:56:17.143Z,0.60
2022-10-05T22:58:45.166Z,0.70
2022-10-05T23:01:15.694Z,0.50
2022-10-05T23:03:43.832Z,0.53
2022-10-05T23:06:14.126Z,0.50
2022-10-05T23:08:42.565Z,0.80
2022-10-05T23:11:13.127Z,0.50
2022-10-05T23:13:41.159Z,0.90
2022-10-05T23:16:11.842Z,0.80
2022-10-05T23:18:40.129Z,0.80
2022-10-05T23:21:08.848Z,0.63
2022-10-05T23:23:41.536Z,0.80
2022-10-05T23:26:10.901Z,0.93
2022-10-05T23:28:46.258Z,0.90
2022-10-05T23:31:16.482Z,1.20
2022-10-05T23:33:44.564Z,1.00
2022-10-05T23:36:16.998Z,1.00
2022-10-05T23:38:45.398Z,1.03
2022-10-05T23:41:13.198Z,0.97
2022-10-05T23:43:40.787Z,1.00
2022-10-05T23:46:09.756Z,0.70
2022-10-05T23:48:40.306Z,0.87
2022-10-05T23:51:11.201Z,0.90
2022-10-05T23:53:38.565Z,1.03
2022-10-05T23:56:06.347Z,0.90
2022-10-05T23:58:33.859Z,1.00
